createdAt,value
2023-04-25T00:00:36.386Z,81.62
2023-04-25T00:03:44.120Z,81.83
2023-04-25T00:06:47.225Z,82.28
2023-04-25T00:09:55.842Z,82.18
2023-04-25T00:13:03.693Z,82.07
2023-04-25T00:16:11.290Z,82.28
2023-04-25T00:19:20.014Z,82.48
2023-04-25T00:22:27.845Z,82.48
2023-04-25T00:25:35.428Z,83.00
2023-04-25T00:28:44.541Z,83.00
2023-04-25T00:31:52.345Z,83.20
2023-04-25T00:34:59.878Z,83.31
2023-04-25T00:38:08.893Z,83.97
2023-04-25T00:41:16.385Z,84.44
2023-04-25T00:44:24.248Z,84.54
2023-04-25T00:47:31.869Z,83.97
2023-04-25T00:50:40.959Z,84.07
2023-04-25T00:53:48.876Z,84.07
2023-04-25T00:56:56.481Z,83.86
2023-04-25T01:00:05.453Z,83.76
2023-04-25T01:03:13.667Z,83.76
2023-04-25T01:06:21.020Z,83.45
2023-04-25T01:09:30.021Z,83.62
2023-04-25T01:12:37.926Z,83.20
2023-04-25T01:15:45.123Z,82.83
2023-04-25T01:18:54.438Z,83.35
2023-04-25T01:22:01.955Z,83.14
2023-04-25T01:25:09.498Z,83.14
2023-04-25T01:28:17.514Z,83.35
2023-04-25T01:31:26.401Z,83.45
2023-04-25T01:34:33.940Z,83.14
2023-04-25T01:37:41.482Z,83.45
2023-04-25T01:40:50.869Z,83.45
2023-04-25T01:43:58.399Z,83.55
2023-04-25T01:47:05.854Z,83.76
2023-04-25T01:50:15.227Z,83.97
2023-04-25T01:53:22.410Z,83.90
2023-04-25T01:56:30.535Z,84.00
2023-04-25T01:59:40.067Z,84.31
2023-04-25T02:02:48.064Z,84.52
2023-04-25T02:05:55.614Z,84.52
2023-04-25T02:09:03.252Z,84.48
2023-04-25T02:12:12.144Z,84.62
2023-04-25T02:15:19.673Z,84.83
2023-04-25T02:18:27.170Z,85.14
2023-04-25T02:21:36.706Z,85.03
2023-04-25T02:24:44.134Z,84.83
2023-04-25T02:27:52.070Z,85.14
2023-04-25T02:31:01.285Z,85.14
2023-04-25T02:34:08.493Z,85.41
2023-04-25T02:37:16.345Z,85.03
2023-04-25T02:40:25.559Z,85.24
2023-04-25T02:43:32.799Z,85.34
2023-04-25T02:46:40.694Z,85.55
2023-04-25T02:49:49.703Z,85.86
2023-04-25T02:52:56.938Z,85.96
2023-04-25T02:56:04.901Z,86.37
2023-04-25T02:59:12.464Z,86.47
2023-04-25T03:02:21.817Z,86.79
2023-04-25T03:05:29.831Z,86.88
2023-04-25T03:08:37.365Z,87.09
2023-04-25T03:11:46.394Z,87.71
2023-04-25T03:14:53.480Z,87.60
2023-04-25T03:18:01.408Z,87.92
2023-04-25T03:21:10.763Z,87.92
2023-04-25T03:24:17.913Z,88.33
2023-04-25T03:27:25.711Z,88.68
2023-04-25T03:30:34.754Z,89.56
2023-04-25T03:33:42.352Z,89.91
2023-04-25T03:36:50.162Z,90.73
2023-04-25T03:39:57.825Z,91.56
2023-04-25T03:43:06.642Z,92.74
2023-04-25T03:46:14.563Z,93.56
2023-04-25T03:49:22.995Z,94.18
2023-04-25T03:52:32.115Z,95.00
2023-04-25T03:55:42.316Z,95.36
2023-04-25T03:58:40.865Z,96.08
2023-04-25T04:01:49.803Z,96.84
2023-04-25T04:04:57.673Z,97.26
2023-04-25T04:08:05.707Z,97.67
2023-04-25T04:11:14.371Z,97.82
2023-04-25T04:14:22.109Z,97.61
2023-04-25T04:17:30.101Z,97.09
2023-04-25T04:20:37.298Z,97.20
2023-04-25T04:23:46.740Z,97.30
2023-04-25T04:26:54.175Z,97.20
2023-04-25T04:30:01.534Z,96.84
2023-04-25T04:33:10.419Z,96.74
2023-04-25T04:36:17.809Z,96.64
2023-04-25T04:39:25.214Z,96.33
2023-04-25T04:42:33.777Z,96.02
2023-04-25T04:45:41.608Z,95.61
2023-04-25T04:48:49.497Z,95.71
2023-04-25T04:51:59.638Z,95.61
2023-04-25T04:55:07.483Z,95.09
2023-04-25T04:58:16.492Z,94.57
2023-04-25T05:01:25.401Z,94.27
2023-04-25T05:04:35.113Z,93.24
2023-04-25T05:07:42.572Z,92.99
2023-04-25T05:10:49.821Z,93.50
2023-04-25T05:13:58.432Z,93.35
2023-04-25T05:17:06.138Z,92.43
2023-04-25T05:20:13.751Z,91.40
2023-04-25T05:23:23.284Z,91.09
2023-04-25T05:26:30.742Z,90.51
2023-04-25T05:29:38.396Z,89.69
2023-04-25T05:32:38.087Z,89.58
2023-04-25T05:35:46.276Z,89.17
2023-04-25T05:38:53.769Z,88.96
2023-04-25T05:42:01.084Z,87.79
2023-04-25T05:45:10.268Z,88.06
2023-04-25T05:48:18.683Z,88.37
2023-04-25T05:51:26.024Z,87.75
2023-04-25T05:54:35.737Z,87.24
2023-04-25T05:57:42.976Z,86.61
2023-04-25T06:00:50.380Z,86.99
2023-04-25T06:03:59.937Z,86.06
2023-04-25T06:07:07.975Z,84.00
2023-04-25T06:10:15.198Z,82.97
2023-04-25T06:13:24.416Z,82.32
2023-04-25T06:16:32.451Z,80.61
2023-04-25T06:19:40.171Z,80.51
2023-04-25T06:22:49.467Z,81.19
2023-04-25T06:25:57.022Z,80.88
2023-04-25T06:29:04.302Z,80.30
2023-04-25T06:32:13.143Z,80.51
2023-04-25T06:35:21.993Z,79.64
2023-04-25T06:38:29.459Z,79.23
2023-04-25T06:41:36.902Z,78.17
2023-04-25T06:44:46.098Z,77.00
2023-04-25T06:47:53.490Z,74.95
2023-04-25T06:51:01.607Z,74.15
2023-04-25T06:54:11.433Z,75.18
2023-04-25T06:57:19.443Z,76.01
2023-04-25T07:00:26.973Z,75.21
2023-04-25T07:03:36.503Z,73.74
2023-04-25T07:06:43.882Z,73.54
2023-04-25T07:09:52.032Z,74.29
2023-04-25T07:12:59.996Z,74.05
2023-04-25T07:16:08.584Z,70.87
2023-04-25T07:19:16.719Z,68.19
2023-04-25T07:22:24.736Z,65.48
2023-04-25T07:25:33.373Z,66.61
2023-04-25T07:28:41.144Z,65.62
2023-04-25T07:31:49.163Z,66.75
2023-04-25T07:34:58.096Z,65.17
2023-04-25T07:38:05.674Z,64.66
2023-04-25T07:41:13.293Z,64.97
2023-04-25T07:44:22.414Z,65.35
2023-04-25T07:47:29.693Z,65.73
2023-04-25T07:50:37.306Z,65.12
2023-04-25T07:53:47.549Z,65.80
2023-04-25T07:56:56.034Z,61.29
2023-04-25T08:00:04.130Z,60.36
2023-04-25T08:03:12.281Z,60.85
2023-04-25T08:06:20.975Z,61.36
2023-04-25T08:09:28.977Z,60.88
2023-04-25T08:12:37.269Z,62.62
2023-04-25T08:15:45.868Z,63.85
2023-04-25T08:18:53.915Z,65.19
2023-04-25T08:22:01.722Z,66.39
2023-04-25T08:25:10.249Z,67.14
2023-04-25T08:28:18.130Z,62.51
2023-04-25T08:31:25.320Z,61.79
2023-04-25T08:34:34.085Z,61.69
2023-04-25T08:37:41.977Z,60.89
2023-04-25T08:40:49.673Z,61.85
2023-04-25T08:43:57.492Z,63.62
2023-04-25T08:47:06.878Z,65.09
2023-04-25T08:50:14.497Z,65.94
2023-04-25T08:53:22.789Z,65.63
2023-04-25T08:56:31.694Z,66.52
2023-04-25T08:59:39.408Z,64.85
2023-04-25T09:02:47.190Z,64.75
2023-04-25T09:05:56.117Z,62.87
2023-04-25T09:09:03.737Z,61.00
2023-04-25T09:12:11.797Z,61.41
2023-04-25T09:15:20.957Z,60.49
2023-04-25T09:18:30.554Z,60.51
2023-04-25T09:21:38.631Z,60.21
2023-04-25T09:24:46.088Z,59.36
2023-04-25T09:27:55.473Z,57.05
2023-04-25T09:31:03.261Z,58.35
2023-04-25T09:34:10.957Z,55.28
2023-04-25T09:37:20.368Z,55.30
2023-04-25T09:40:27.966Z,54.31
2023-04-25T09:43:35.965Z,54.82
2023-04-25T09:46:45.184Z,55.02
2023-04-25T09:49:53.037Z,55.98
2023-04-25T09:53:00.800Z,56.41
2023-04-25T09:56:10.095Z,57.43
2023-04-25T09:59:18.110Z,57.98
2023-04-25T10:02:25.845Z,58.49
2023-04-25T10:05:34.982Z,59.31
2023-04-25T10:08:42.965Z,57.98
2023-04-25T10:11:50.649Z,57.64
2023-04-25T10:14:58.730Z,58.74
2023-04-25T10:18:07.736Z,57.25
2023-04-25T10:21:15.029Z,58.63
2023-04-25T10:24:22.643Z,57.99
2023-04-25T10:27:31.894Z,56.53
2023-04-25T10:30:39.314Z,56.97
2023-04-25T10:33:46.850Z,56.89
2023-04-25T10:36:55.834Z,54.57
2023-04-25T10:40:03.122Z,55.28
2023-04-25T10:43:10.840Z,55.26
2023-04-25T10:46:20.097Z,56.59
2023-04-25T10:49:28.501Z,53.41
2023-04-25T10:52:36.227Z,52.08
2023-04-25T10:55:44.116Z,54.72
2023-04-25T10:58:54.084Z,51.04
2023-04-25T11:02:02.246Z,50.63
2023-04-25T11:05:09.888Z,49.09
2023-04-25T11:08:19.182Z,49.50
2023-04-25T11:11:26.660Z,49.50
2023-04-25T11:14:34.443Z,50.01
2023-04-25T11:17:44.453Z,49.83
2023-04-25T11:20:51.821Z,50.85
2023-04-25T11:24:00.165Z,49.93
2023-04-25T11:27:09.038Z,50.71
2023-04-25T11:30:17.257Z,49.89
2023-04-25T11:33:24.945Z,50.63
2023-04-25T11:36:32.595Z,51.06
2023-04-25T11:39:41.884Z,51.31
2023-04-25T11:42:49.796Z,53.28
2023-04-25T11:45:59.115Z,54.95
2023-04-25T11:49:08.780Z,57.54
2023-04-25T11:52:16.635Z,58.39
2023-04-25T11:55:24.718Z,58.87
2023-04-25T11:58:34.414Z,58.64
2023-04-25T12:01:42.078Z,57.89
2023-04-25T12:04:50.847Z,57.12
2023-04-25T12:08:00.405Z,56.89
2023-04-25T12:11:08.736Z,54.92
2023-04-25T12:14:17.229Z,54.21
2023-04-25T12:17:26.292Z,51.34
2023-04-25T12:20:34.742Z,50.52
2023-04-25T12:23:43.631Z,49.71
2023-04-25T12:26:51.665Z,50.89
2023-04-25T12:30:00.937Z,51.10
2023-04-25T12:33:09.471Z,48.75
2023-04-25T12:36:17.308Z,49.69
2023-04-25T12:39:26.973Z,50.08
2023-04-25T12:42:35.490Z,49.26
2023-04-25T12:45:43.859Z,46.66
2023-04-25T12:48:53.509Z,48.61
2023-04-25T12:52:01.427Z,48.76
2023-04-25T12:55:09.750Z,50.34
2023-04-25T12:58:19.113Z,52.95
2023-04-25T13:01:27.262Z,54.51
2023-04-25T13:04:36.161Z,55.43
2023-04-25T13:07:43.842Z,56.90
2023-04-25T13:10:53.688Z,57.71
2023-04-25T13:14:02.001Z,58.10
2023-04-25T13:17:09.946Z,57.66
2023-04-25T13:20:19.468Z,57.33
2023-04-25T13:23:28.804Z,54.23
2023-04-25T13:26:36.975Z,53.92
2023-04-25T13:29:46.818Z,54.59
2023-04-25T13:32:55.452Z,54.03
2023-04-25T13:36:03.273Z,53.75
2023-04-25T13:39:12.976Z,54.57
2023-04-25T13:42:21.295Z,55.43
2023-04-25T13:45:31.517Z,56.28
2023-04-25T13:48:30.235Z,55.15
2023-04-25T13:51:40.453Z,54.74
2023-04-25T13:54:49.595Z,54.13
2023-04-25T13:57:57.530Z,54.36
2023-04-25T14:01:07.001Z,54.03
2023-04-25T14:04:17.455Z,53.08
2023-04-25T14:07:25.659Z,46.53
2023-04-25T14:10:35.154Z,45.41
2023-04-25T14:13:43.574Z,44.31
2023-04-25T14:16:52.022Z,45.37
2023-04-25T14:20:01.658Z,47.34
2023-04-25T14:23:10.133Z,48.47
2023-04-25T14:26:17.777Z,50.01
2023-04-25T14:29:27.497Z,51.23
2023-04-25T14:32:36.002Z,51.93
2023-04-25T14:35:43.742Z,53.67
2023-04-25T14:38:52.207Z,54.18
2023-04-25T14:42:01.864Z,54.61
2023-04-25T14:45:09.747Z,53.19
2023-04-25T14:48:18.303Z,52.85
2023-04-25T14:51:27.669Z,51.40
2023-04-25T14:54:35.830Z,52.62
2023-04-25T14:57:44.062Z,52.62
2023-04-25T15:00:53.824Z,52.91
2023-04-25T15:04:02.184Z,53.52
2023-04-25T15:07:10.762Z,54.05
2023-04-25T15:10:20.132Z,54.31
2023-04-25T15:13:28.086Z,56.23
2023-04-25T15:16:36.667Z,57.35
2023-04-25T15:19:44.554Z,58.51
2023-04-25T15:22:54.137Z,59.23
2023-04-25T15:26:02.147Z,60.76
2023-04-25T15:29:11.113Z,60.56
2023-04-25T15:32:20.839Z,61.79
2023-04-25T15:35:28.546Z,61.86
2023-04-25T15:38:36.817Z,60.10
2023-04-25T15:41:46.573Z,58.58
2023-04-25T15:44:54.335Z,57.76
2023-04-25T15:48:03.095Z,58.07
2023-04-25T15:51:12.338Z,58.15
2023-04-25T15:54:20.409Z,57.89
2023-04-25T15:57:28.992Z,57.15
2023-04-25T16:00:38.287Z,56.87
2023-04-25T16:03:46.900Z,57.74
2023-04-25T16:06:55.540Z,59.50
2023-04-25T16:10:03.957Z,60.56
2023-04-25T16:13:13.477Z,63.35
2023-04-25T16:16:22.141Z,66.39
2023-04-25T16:19:30.371Z,66.22
2023-04-25T16:22:39.950Z,65.09
2023-04-25T16:25:48.243Z,63.65
2023-04-25T16:28:56.953Z,63.65
2023-04-25T16:32:06.521Z,63.03
2023-04-25T16:35:14.619Z,64.06
2023-04-25T16:38:23.064Z,64.92
2023-04-25T16:41:32.504Z,63.64
2023-04-25T16:44:40.373Z,62.61
2023-04-25T16:47:48.703Z,62.74
2023-04-25T16:50:56.943Z,63.51
2023-04-25T16:54:06.542Z,64.57
2023-04-25T16:57:15.022Z,63.96
2023-04-25T17:00:23.037Z,64.16
2023-04-25T17:03:34.021Z,64.37
2023-04-25T17:06:33.572Z,64.98
2023-04-25T17:09:41.325Z,65.01
2023-04-25T17:12:51.152Z,65.63
2023-04-25T17:15:59.866Z,66.96
2023-04-25T17:19:07.732Z,66.25
2023-04-25T17:22:17.250Z,65.91
2023-04-25T17:25:25.604Z,67.55
2023-04-25T17:28:33.408Z,67.96
2023-04-25T17:31:41.708Z,66.35
2023-04-25T17:34:51.200Z,67.07
2023-04-25T17:37:59.639Z,67.41
2023-04-25T17:41:07.762Z,66.79
2023-04-25T17:44:17.276Z,67.85
2023-04-25T17:47:25.728Z,67.75
2023-04-25T17:50:33.687Z,67.65
2023-04-25T17:53:43.226Z,69.60
2023-04-25T17:56:51.631Z,72.34
2023-04-25T17:59:59.754Z,73.06
2023-04-25T18:03:09.034Z,72.78
2023-04-25T18:06:17.764Z,72.06
2023-04-25T18:09:25.728Z,71.58
2023-04-25T18:12:35.092Z,71.89
2023-04-25T18:15:43.604Z,72.20
2023-04-25T18:18:51.665Z,72.44
2023-04-25T18:21:59.681Z,73.02
2023-04-25T18:25:09.391Z,72.92
2023-04-25T18:28:17.544Z,72.20
2023-04-25T18:31:25.644Z,72.09
2023-04-25T18:34:35.410Z,72.61
2023-04-25T18:37:43.310Z,72.92
2023-04-25T18:40:59.197Z,72.61
2023-04-25T18:43:57.892Z,73.02
2023-04-25T18:47:06.107Z,73.23
2023-04-25T18:50:14.024Z,73.88
2023-04-25T18:53:23.473Z,74.40
2023-04-25T18:56:31.916Z,74.40
2023-04-25T18:59:40.190Z,74.22
2023-04-25T19:02:48.472Z,74.02
2023-04-25T19:05:58.151Z,73.81
2023-04-25T19:09:05.700Z,74.22
2023-04-25T19:12:13.550Z,73.81
2023-04-25T19:15:23.318Z,73.74
2023-04-25T19:18:30.902Z,73.85
2023-04-25T19:21:39.291Z,73.74
2023-04-25T19:24:59.048Z,74.15
2023-04-25T19:27:54.049Z,75.12
2023-04-25T19:31:02.401Z,76.77
2023-04-25T19:34:12.673Z,77.32
2023-04-25T19:37:20.405Z,77.53
2023-04-25T19:40:28.301Z,78.14
2023-04-25T19:43:37.491Z,79.22
2023-04-25T19:46:45.945Z,80.15
2023-04-25T19:49:53.995Z,80.87
2023-04-25T19:53:02.039Z,81.59
2023-04-25T19:56:12.060Z,82.10
2023-04-25T19:59:20.206Z,82.10
2023-04-25T20:02:27.845Z,82.00
2023-04-25T20:05:37.731Z,81.63
2023-04-25T20:08:45.253Z,81.52
2023-04-25T20:11:53.586Z,81.84
2023-04-25T20:15:03.417Z,81.94
2023-04-25T20:18:11.225Z,81.84
2023-04-25T20:21:19.642Z,81.84
2023-04-25T20:24:29.630Z,81.84
2023-04-25T20:27:37.262Z,82.15
2023-04-25T20:30:45.796Z,82.80
2023-04-25T20:33:54.064Z,83.11
2023-04-25T20:37:03.071Z,83.25
2023-04-25T20:40:11.599Z,83.36
2023-04-25T20:43:19.549Z,83.36
2023-04-25T20:46:29.271Z,83.56
2023-04-25T20:49:37.260Z,83.98
2023-04-25T20:52:45.135Z,84.22
2023-04-25T20:55:55.554Z,84.01
2023-04-25T20:59:03.235Z,83.46
2023-04-25T21:02:11.171Z,83.36
2023-04-25T21:05:21.251Z,83.15
2023-04-25T21:08:29.476Z,82.50
2023-04-25T21:11:37.454Z,82.18
2023-04-25T21:14:46.902Z,81.67
2023-04-25T21:17:54.510Z,81.46
2023-04-25T21:21:02.811Z,80.74
2023-04-25T21:24:11.293Z,80.32
2023-04-25T21:27:20.532Z,79.91
2023-04-25T21:30:28.841Z,80.01
2023-04-25T21:33:37.134Z,79.60
2023-04-25T21:36:46.323Z,79.43
2023-04-25T21:39:54.826Z,78.91
2023-04-25T21:43:03.472Z,78.29
2023-04-25T21:46:23.111Z,77.94
2023-04-25T21:49:18.194Z,77.53
2023-04-25T21:52:25.999Z,76.50
2023-04-25T21:55:35.547Z,75.88
2023-04-25T21:58:43.560Z,75.78
2023-04-25T22:01:51.431Z,76.09
2023-04-25T22:05:00.026Z,76.39
2023-04-25T22:08:09.395Z,76.70
2023-04-25T22:11:17.141Z,77.43
2023-04-25T22:14:25.449Z,77.64
2023-04-25T22:17:34.516Z,77.43
2023-04-25T22:20:42.961Z,77.43
2023-04-25T22:23:51.316Z,77.64
2023-04-25T22:27:00.529Z,78.29
2023-04-25T22:30:08.974Z,78.74
2023-04-25T22:33:17.320Z,79.16
2023-04-25T22:36:26.340Z,79.67
2023-04-25T22:39:34.599Z,80.12
2023-04-25T22:42:42.868Z,80.43
2023-04-25T22:45:52.006Z,80.74
2023-04-25T22:49:00.538Z,80.99
2023-04-25T22:52:08.366Z,81.40
2023-04-25T22:55:16.388Z,81.61
2023-04-25T22:58:25.831Z,82.03
2023-04-25T23:01:34.276Z,82.37
2023-04-25T23:04:42.664Z,82.79
2023-04-25T23:07:52.254Z,83.00
2023-04-25T23:11:00.491Z,83.41
2023-04-25T23:14:08.733Z,83.86
2023-04-25T23:17:17.737Z,84.17
2023-04-25T23:20:26.078Z,84.59
2023-04-25T23:23:34.396Z,85.00
2023-04-25T23:26:43.423Z,85.46
2023-04-25T23:29:51.854Z,85.87
2023-04-25T23:33:00.680Z,86.08
2023-04-25T23:36:08.279Z,86.18
2023-04-25T23:39:17.921Z,86.33
2023-04-25T23:42:26.571Z,86.54
2023-04-25T23:45:34.257Z,86.74
2023-04-25T23:48:44.021Z,86.95
2023-04-25T23:51:52.080Z,86.85
2023-04-25T23:55:00.153Z,86.95
2023-04-25T23:58:09.676Z,86.88
